createdAt,value
2022-11-21T00:05:42.464Z,119.70
2022-11-21T00:08:44.960Z,112.30
2022-11-21T00:11:46.671Z,117.10
2022-11-21T00:14:48.463Z,118.70
2022-11-21T00:17:50.613Z,118.90
2022-11-21T00:20:52.451Z,118.50
2022-11-21T00:23:54.201Z,116.80
2022-11-21T00:26:56.360Z,99.90
2022-11-21T00:29:58.008Z,109.00
2022-11-21T00:32:59.776Z,105.70
2022-11-21T00:36:09.015Z,112.10
2022-11-21T00:39:10.827Z,106.00
2022-11-21T00:42:15.644Z,102.30
2022-11-21T00:45:22.703Z,94.20
2022-11-21T00:48:26.028Z,97.60
2022-11-21T00:51:30.878Z,94.90
2022-11-21T00:54:32.517Z,88.40
2022-11-21T00:57:37.263Z,90.80
2022-11-21T01:00:39.000Z,88.90
2022-11-21T01:06:42.612Z,93.20
2022-11-21T01:09:44.242Z,91.90
2022-11-21T01:12:46.156Z,93.80
2022-11-21T01:18:49.757Z,88.10
2022-11-21T01:24:53.137Z,88.70
2022-11-21T01:30:56.566Z,93.60
2022-11-21T01:40:04.028Z,81.20
2022-11-21T01:43:14.813Z,84.50
2022-11-21T01:46:21.570Z,82.10
2022-11-21T01:49:31.251Z,87.10
2022-11-21T01:52:33.140Z,94.70
2022-11-21T01:55:35.335Z,95.80
2022-11-21T02:01:39.284Z,86.20
2022-11-21T02:04:42.677Z,89.90
2022-11-21T02:07:46.364Z,86.90
2022-11-21T02:10:56.207Z,88.10
2022-11-21T02:13:58.043Z,88.40
2022-11-21T02:20:05.910Z,85.60
2022-11-21T02:23:21.003Z,91.70
2022-11-21T02:26:22.997Z,91.70
2022-11-21T02:29:24.814Z,93.30
2022-11-21T02:32:34.341Z,90.50
2022-11-21T02:35:36.837Z,90.10
2022-11-21T02:38:39.028Z,89.50
2022-11-21T02:41:49.038Z,93.20
2022-11-21T02:45:21.664Z,90.20
2022-11-21T02:48:23.472Z,88.80
2022-11-21T02:51:25.399Z,89.90
2022-11-21T02:54:27.342Z,87.60
2022-11-21T02:57:29.233Z,92.40
2022-11-21T03:00:31.118Z,85.90
2022-11-21T03:06:34.489Z,81.50
2022-11-21T03:12:42.525Z,83.70
2022-11-21T03:15:44.117Z,88.40
2022-11-21T03:18:45.808Z,85.30
2022-11-21T03:21:47.566Z,82.40
2022-11-21T03:24:49.254Z,83.60
2022-11-21T03:27:52.527Z,85.60
2022-11-21T03:30:54.325Z,87.60
2022-11-21T03:33:56.205Z,89.90
2022-11-21T03:36:57.929Z,90.00
2022-11-21T03:39:59.708Z,84.00
2022-11-21T03:43:07.983Z,80.60
2022-11-21T03:46:09.630Z,95.50
2022-11-21T03:49:12.265Z,93.70
2022-11-21T03:52:13.877Z,78.50
2022-11-21T03:55:15.601Z,73.20
2022-11-21T03:58:17.191Z,75.00
2022-11-21T04:01:19.654Z,77.80
2022-11-21T04:04:21.353Z,78.90
2022-11-21T04:07:23.470Z,81.40
2022-11-21T04:10:25.232Z,82.00
2022-11-21T04:13:27.081Z,81.50
2022-11-21T04:16:28.813Z,82.10
2022-11-21T04:19:30.590Z,84.80
2022-11-21T04:22:32.236Z,87.30
2022-11-21T04:25:33.940Z,86.20
2022-11-21T04:28:35.667Z,85.60
2022-11-21T04:31:37.374Z,87.80
2022-11-21T04:34:39.803Z,85.20
2022-11-21T04:37:41.663Z,92.10
2022-11-21T04:46:47.481Z,92.20
2022-11-21T04:49:49.124Z,86.50
2022-11-21T04:52:56.037Z,80.20
2022-11-21T04:55:58.056Z,81.80
2022-11-21T04:58:59.629Z,77.50
2022-11-21T05:02:03.283Z,72.80
2022-11-21T05:05:05.416Z,78.90
2022-11-21T05:08:07.184Z,80.70
2022-11-21T05:11:27.680Z,89.20
2022-11-21T05:14:29.731Z,73.60
2022-11-21T05:17:31.824Z,71.30
2022-11-21T05:20:36.824Z,84.30
2022-11-21T05:23:38.788Z,106.70
2022-11-21T05:26:40.562Z,81.40
2022-11-21T05:29:42.310Z,77.00
2022-11-21T05:32:44.425Z,77.70
2022-11-21T05:35:46.569Z,75.90
2022-11-21T05:38:48.506Z,75.80
2022-11-21T05:44:51.919Z,61.50
2022-11-21T05:50:55.133Z,73.70
2022-11-21T05:53:57.056Z,69.30
2022-11-21T06:00:00.349Z,55.00
2022-11-21T06:03:20.964Z,69.30
2022-11-21T06:06:24.953Z,75.10
2022-11-21T06:09:26.811Z,85.80
2022-11-21T06:12:28.498Z,78.20
2022-11-21T06:15:30.228Z,80.20
2022-11-21T06:18:44.024Z,78.40
2022-11-21T06:21:45.696Z,74.70
2022-11-21T06:24:47.462Z,72.10
2022-11-21T06:27:49.198Z,68.60
2022-11-21T06:30:52.180Z,71.40
2022-11-21T06:33:56.580Z,79.10
2022-11-21T06:36:58.403Z,81.10
2022-11-21T06:40:00.374Z,76.70
2022-11-21T06:43:02.222Z,77.10
2022-11-21T06:46:04.414Z,77.40
2022-11-21T06:52:07.847Z,83.40
2022-11-21T06:55:10.547Z,83.00
2022-11-21T06:58:12.290Z,82.90
2022-11-21T07:01:13.943Z,77.00
2022-11-21T07:04:15.662Z,85.10
2022-11-21T07:07:17.457Z,92.30
2022-11-21T07:13:23.624Z,85.60
2022-11-21T07:16:26.616Z,93.30
2022-11-21T07:19:28.664Z,107.30
2022-11-21T07:22:30.728Z,95.80
2022-11-21T07:25:36.413Z,95.60
2022-11-21T07:28:38.649Z,90.70
2022-11-21T07:31:40.301Z,100.70
2022-11-21T07:34:42.080Z,103.10
2022-11-21T07:37:44.035Z,99.30
2022-11-21T07:40:46.574Z,103.50
2022-11-21T07:43:48.203Z,107.40
2022-11-21T07:46:53.757Z,112.70
2022-11-21T07:49:55.574Z,122.30
2022-11-21T07:56:09.910Z,107.30
2022-11-21T07:59:11.823Z,118.30
2022-11-21T08:02:19.589Z,97.10
2022-11-21T08:05:21.405Z,88.40
2022-11-21T08:17:29.871Z,85.00
2022-11-21T08:23:33.572Z,74.70
2022-11-21T08:29:36.716Z,84.60
2022-11-21T08:32:38.639Z,72.80
2022-11-21T08:38:41.895Z,63.00
2022-11-21T08:42:02.074Z,65.20
2022-11-21T08:45:05.552Z,59.50
2022-11-21T08:48:11.087Z,55.80
2022-11-21T08:51:12.739Z,55.50
2022-11-21T08:54:14.578Z,50.90
2022-11-21T08:57:16.196Z,49.40
2022-11-21T09:00:18.049Z,51.40
2022-11-21T09:03:23.582Z,52.10
2022-11-21T09:06:27.235Z,52.70
2022-11-21T09:09:28.876Z,45.00
2022-11-21T09:12:31.313Z,42.50
2022-11-21T09:15:51.796Z,42.80
2022-11-21T09:18:53.436Z,44.40
2022-11-21T09:21:55.178Z,42.70
2022-11-21T09:24:56.878Z,41.20
2022-11-21T09:28:06.223Z,40.40
2022-11-21T09:31:08.781Z,41.20
2022-11-21T09:34:10.611Z,40.30
2022-11-21T09:37:14.885Z,43.70
2022-11-21T09:40:16.930Z,40.30
2022-11-21T09:43:42.764Z,44.70
2022-11-21T09:46:47.745Z,41.40
2022-11-21T09:49:57.290Z,42.80
2022-11-21T09:53:07.003Z,42.80
2022-11-21T09:56:14.340Z,50.80
2022-11-21T09:59:21.714Z,40.80
2022-11-21T10:02:24.482Z,47.60
2022-11-21T10:05:52.296Z,37.20
2022-11-21T10:09:23.798Z,36.90
2022-11-21T10:12:37.299Z,33.00
2022-11-21T10:15:51.244Z,32.60
2022-11-21T10:19:10.365Z,31.00
2022-11-21T10:22:24.598Z,31.70
2022-11-21T10:25:30.907Z,31.00
2022-11-21T10:28:42.357Z,32.80
2022-11-21T10:31:44.005Z,33.10
2022-11-21T10:34:46.277Z,35.90
2022-11-21T10:38:00.286Z,35.30
2022-11-21T10:41:03.808Z,35.00
2022-11-21T10:44:24.222Z,34.10
2022-11-21T10:47:32.078Z,33.50
2022-11-21T10:50:47.150Z,33.30
2022-11-21T10:54:26.097Z,32.60
2022-11-21T10:57:31.408Z,32.20
2022-11-21T11:00:33.248Z,31.30
2022-11-21T11:03:35.042Z,31.00
2022-11-21T11:09:40.345Z,31.90
2022-11-21T11:13:02.171Z,33.70
2022-11-21T11:16:16.255Z,33.10
2022-11-21T11:19:27.108Z,33.50
2022-11-21T11:22:33.481Z,35.50
2022-11-21T11:31:46.407Z,33.70
2022-11-21T11:34:51.264Z,34.10
2022-11-21T11:38:00.747Z,33.90
2022-11-21T11:41:13.812Z,36.60
2022-11-21T11:44:54.941Z,32.50
2022-11-21T11:47:59.665Z,34.00
2022-11-21T11:51:04.308Z,30.20
2022-11-21T11:54:14.836Z,31.60
2022-11-21T11:57:17.596Z,32.10
2022-11-21T12:00:25.485Z,32.20
2022-11-21T12:03:59.395Z,31.10
2022-11-21T12:08:20.075Z,30.10
2022-11-21T12:11:11.636Z,33.40
2022-11-21T12:15:15.247Z,32.70
2022-11-21T12:18:19.774Z,32.20
2022-11-21T12:21:23.576Z,33.70
2022-11-21T12:24:25.540Z,40.20
2022-11-21T12:27:31.664Z,33.00
2022-11-21T12:30:47.943Z,33.00
2022-11-21T12:34:07.306Z,30.40
2022-11-21T12:37:47.210Z,30.50
2022-11-21T12:41:37.365Z,29.20
2022-11-21T12:45:07.707Z,29.30
2022-11-21T12:48:33.430Z,104.30
2022-11-21T12:52:08.133Z,50.50
2022-11-21T12:55:20.390Z,33.60
2022-11-21T12:58:34.220Z,24.70
2022-11-21T13:01:46.933Z,25.90
2022-11-21T13:04:50.329Z,24.40
2022-11-21T13:07:59.673Z,25.90
2022-11-21T13:11:48.677Z,25.50
2022-11-21T13:15:35.418Z,25.30
2022-11-21T13:18:45.941Z,23.60
2022-11-21T13:21:49.835Z,23.30
2022-11-21T13:24:51.415Z,24.10
2022-11-21T13:27:54.893Z,24.90
2022-11-21T13:30:57.878Z,24.30
2022-11-21T13:34:01.022Z,24.80
2022-11-21T13:37:03.947Z,23.80
2022-11-21T13:40:31.404Z,24.40
2022-11-21T13:43:34.563Z,24.00
2022-11-21T13:47:05.622Z,26.40
2022-11-21T13:50:22.699Z,27.50
2022-11-21T13:54:02.304Z,26.20
2022-11-21T13:57:25.303Z,39.30
2022-11-21T14:00:48.767Z,33.30
2022-11-21T14:04:10.488Z,34.40
2022-11-21T14:07:38.931Z,37.10
2022-11-21T14:10:42.896Z,40.60
2022-11-21T14:13:47.064Z,41.80
2022-11-21T14:16:53.926Z,45.00
2022-11-21T14:19:57.458Z,45.00
2022-11-21T14:23:14.740Z,39.70
2022-11-21T14:26:20.118Z,46.50
2022-11-21T14:29:29.541Z,37.30
2022-11-21T14:32:32.222Z,34.70
2022-11-21T14:35:34.452Z,38.00
2022-11-21T14:38:43.937Z,39.00
2022-11-21T14:41:50.237Z,40.40
2022-11-21T14:45:13.777Z,41.00
2022-11-21T14:48:15.373Z,44.60
2022-11-21T14:51:19.083Z,46.10
2022-11-21T14:54:23.307Z,122.50
2022-11-21T14:57:29.238Z,173.50
2022-11-21T15:04:01.251Z,130.70
2022-11-21T15:07:03.970Z,101.60
2022-11-21T15:10:27.285Z,60.70
2022-11-21T15:13:44.956Z,45.00
2022-11-21T15:16:54.237Z,35.40
2022-11-21T15:20:17.805Z,35.60
2022-11-21T15:23:34.079Z,36.00
2022-11-21T15:26:36.356Z,38.40
2022-11-21T15:29:38.008Z,37.70
2022-11-21T15:36:12.487Z,68.60
2022-11-21T15:39:19.789Z,61.80
2022-11-21T15:42:29.729Z,64.40
2022-11-21T15:45:31.445Z,59.10
2022-11-21T15:48:33.168Z,52.80
2022-11-21T15:54:56.426Z,46.10
2022-11-21T15:57:58.165Z,63.00
2022-11-21T16:01:00.401Z,55.90
2022-11-21T16:04:04.913Z,63.50
2022-11-21T16:07:06.782Z,58.30
2022-11-21T16:10:14.894Z,65.50
2022-11-21T16:13:21.388Z,69.60
2022-11-21T16:19:26.004Z,61.80
2022-11-21T16:22:27.688Z,54.50
2022-11-21T16:25:29.421Z,47.70
2022-11-21T16:31:32.951Z,45.00
2022-11-21T16:34:34.604Z,47.30
2022-11-21T16:40:39.511Z,58.60
2022-11-21T16:43:47.988Z,51.70
2022-11-21T16:46:51.839Z,53.40
2022-11-21T16:49:53.707Z,51.30
2022-11-21T16:56:00.967Z,81.80
2022-11-21T16:59:02.855Z,70.10
2022-11-21T17:02:04.824Z,60.80
2022-11-21T17:05:06.997Z,55.90
2022-11-21T17:08:08.694Z,53.40
2022-11-21T17:11:17.852Z,46.30
2022-11-21T17:14:19.423Z,45.40
2022-11-21T17:17:21.282Z,46.20
2022-11-21T17:20:22.929Z,46.90
2022-11-21T17:26:28.324Z,38.30
2022-11-21T17:29:30.215Z,47.20
2022-11-21T17:32:31.936Z,47.50
2022-11-21T17:38:35.619Z,41.60
2022-11-21T17:44:39.893Z,43.50
2022-11-21T17:47:42.293Z,40.70
2022-11-21T17:50:43.918Z,40.70
2022-11-21T17:53:47.295Z,47.50
2022-11-21T17:56:53.932Z,48.50
2022-11-21T17:59:58.732Z,57.00
2022-11-21T18:03:00.688Z,58.80
2022-11-21T18:06:05.037Z,44.30
2022-11-21T18:09:07.564Z,32.60
2022-11-21T18:12:09.462Z,33.40
2022-11-21T18:15:11.200Z,30.90
2022-11-21T18:24:17.814Z,33.10
2022-11-21T18:27:19.614Z,30.60
2022-11-21T18:30:21.345Z,28.50
2022-11-21T18:36:26.143Z,33.10
2022-11-21T18:39:28.442Z,48.80
2022-11-21T18:42:32.334Z,42.80
2022-11-21T18:45:33.941Z,40.10
2022-11-21T18:49:00.987Z,45.10
2022-11-21T18:51:57.903Z,45.30
2022-11-21T18:54:59.666Z,68.60
2022-11-21T19:01:07.692Z,52.40
2022-11-21T19:04:09.804Z,68.00
2022-11-21T19:07:11.705Z,57.30
2022-11-21T19:10:41.541Z,56.00
2022-11-21T19:13:35.248Z,54.70
2022-11-21T19:19:38.622Z,44.30
2022-11-21T19:22:40.510Z,43.00
2022-11-21T19:25:42.102Z,42.70
2022-11-21T19:28:44.821Z,40.10
2022-11-21T19:31:46.661Z,45.10
2022-11-21T19:34:48.710Z,47.80
2022-11-21T19:37:50.582Z,47.80
2022-11-21T19:41:10.875Z,55.90
2022-11-21T19:44:12.753Z,47.00
2022-11-21T19:50:15.953Z,55.00
2022-11-21T19:56:24.715Z,49.20
2022-11-21T19:59:27.600Z,56.00
2022-11-21T20:02:29.664Z,55.30
2022-11-21T20:08:33.700Z,54.10
2022-11-21T20:11:36.213Z,54.20
2022-11-21T20:14:37.993Z,54.40
2022-11-21T20:17:39.869Z,52.20
2022-11-21T20:20:41.681Z,53.40
2022-11-21T20:23:43.679Z,57.00
2022-11-21T20:26:45.798Z,56.90
2022-11-21T20:29:47.516Z,59.80
2022-11-21T20:32:49.197Z,54.40
2022-11-21T20:35:50.830Z,56.70
2022-11-21T20:38:57.895Z,64.10
2022-11-21T20:42:00.194Z,66.60
2022-11-21T20:48:23.766Z,95.70
2022-11-21T20:54:47.088Z,70.00
2022-11-21T21:00:50.240Z,78.50
2022-11-21T21:03:51.945Z,76.50
2022-11-21T21:09:56.960Z,75.30
2022-11-21T21:12:58.724Z,71.00
2022-11-21T21:19:06.563Z,67.50
2022-11-21T21:22:09.268Z,63.50
2022-11-21T21:25:11.022Z,60.30
2022-11-21T21:31:17.085Z,56.10
2022-11-21T21:34:20.441Z,58.50
2022-11-21T21:37:22.151Z,62.60
2022-11-21T21:40:23.809Z,68.20
2022-11-21T21:43:25.461Z,69.80
2022-11-21T21:46:28.072Z,73.00
2022-11-21T21:49:29.794Z,83.80
2022-11-21T21:55:33.497Z,70.10
2022-11-21T22:01:42.799Z,52.40
2022-11-21T22:04:49.140Z,50.60
2022-11-21T22:07:53.544Z,46.70
2022-11-21T22:14:06.578Z,45.60
2022-11-21T22:17:08.644Z,46.70
2022-11-21T22:20:10.765Z,45.90
2022-11-21T22:23:12.461Z,47.00
2022-11-21T22:29:16.169Z,45.40
2022-11-21T22:32:19.805Z,47.00
2022-11-21T22:35:21.840Z,42.20
2022-11-21T22:38:23.469Z,41.70
2022-11-21T22:41:27.317Z,43.00
2022-11-21T22:44:29.290Z,39.10
2022-11-21T22:47:31.122Z,38.40
2022-11-21T22:50:32.944Z,38.70
2022-11-21T22:56:42.000Z,40.40
2022-11-21T23:02:45.356Z,40.40
2022-11-21T23:05:46.970Z,36.60
2022-11-21T23:08:49.391Z,39.40
2022-11-21T23:11:51.052Z,37.40
2022-11-21T23:17:54.737Z,36.10
2022-11-21T23:20:56.622Z,36.40
2022-11-21T23:23:58.481Z,37.10
2022-11-21T23:27:00.471Z,38.10
2022-11-21T23:30:02.193Z,37.80
2022-11-21T23:36:06.265Z,32.30
2022-11-21T23:39:07.951Z,38.30
2022-11-21T23:45:11.125Z,33.80
2022-11-21T23:48:12.834Z,34.00
2022-11-21T23:51:14.462Z,47.90
2022-11-21T23:54:17.166Z,35.00
2022-11-21T23:57:19.007Z,37.40
